Time;durP1;ratioP1;P1;durP2;ratioP2;P2;SDS_P1;SDS_P2;PMS_P1;PMS_P2;Temp;Humidity;BMP_temperature;BMP_pressure;BME280_temperature;BME280_humidity;BME280_pressure;Samples;Min_cycle;Max_cycle;Signal;HPM_P1;HPM_P2
2022/01/15 00:02:23;;;;;;;3.35;1.17;;;1.30;1.80;;;1.02;86.12;97985.06;4980316;28;130006;-74
2022/01/15 00:04:52;;;;;;;3.88;1.15;;;1.30;4.40;;;0.98;86.10;97978.72;4982726;28;130401;-73
2022/01/15 00:07:21;;;;;;;1.23;0.90;;;1.30;1.30;;;0.97;85.17;97984.34;4982866;28;124474;-74
2022/01/15 00:09:50;;;;;;;2.88;1.10;;;1.40;1.00;;;1.24;84.76;97997.09;4982706;28;124440;-73
2022/01/15 00:12:19;;;;;;;5.63;1.00;;;1.40;1.00;;;1.29;83.85;98006.94;4996769;28;130677;-74
2022/01/15 00:14:48;;;;;;;2.63;1.00;;;1.40;1.00;;;1.31;83.96;97989.53;4980773;28;129902;-74
2022/01/15 00:17:20;;;;;;;2.00;1.13;;;1.40;1.00;;;1.10;83.27;97998.88;4982409;28;126646;-73
2022/01/15 00:19:51;;;;;;;3.22;1.00;;;1.50;1.00;;;1.36;83.23;97986.78;4980404;28;125746;-74
2022/01/15 00:22:20;;;;;;;2.08;0.98;;;1.50;1.00;;;1.37;82.58;97977.69;4980640;28;129944;-74
2022/01/15 00:24:51;;;;;;;2.63;1.00;;;1.50;1.00;;;1.27;83.04;98009.09;4980846;28;129872;-73
2022/01/15 00:27:20;;;;;;;3.33;1.05;;;1.50;1.00;;;1.33;83.40;98003.41;4980392;28;126850;-73
2022/01/15 00:29:48;;;;;;;4.18;1.20;;;1.50;1.00;;;1.32;82.05;97993.78;4982102;28;126337;-74
2022/01/15 00:32:17;;;;;;;4.03;1.00;;;1.50;1.00;;;1.46;82.32;98006.44;4982563;28;130142;-74
2022/01/15 00:34:46;;;;;;;4.90;1.17;;;1.50;1.00;;;1.35;82.66;98006.56;4980680;28;129986;-74
2022/01/15 00:37:17;;;;;;;3.10;1.05;;;1.50;1.00;;;1.33;82.40;98024.78;4983285;28;125864;-73
2022/01/15 00:39:46;;;;;;;3.42;1.23;;;1.50;1.00;;;1.38;82.60;98011.34;4981454;28;125330;-74
2022/01/15 00:42:14;;;;;;;2.72;0.93;;;1.50;1.00;;;1.44;82.44;98015.53;4981279;28;129966;-74
2022/01/15 00:44:43;;;;;;;4.13;1.05;;;1.50;1.00;;;1.48;82.08;98020.31;4982601;28;130146;-74
2022/01/15 00:47:12;;;;;;;1.95;0.90;;;1.50;1.00;;;1.67;81.54;98026.50;4979711;28;126275;-73
2022/01/15 00:49:41;;;;;;;2.22;1.08;;;1.50;1.00;;;1.66;81.09;98003.50;4980557;28;125784;-73
2022/01/15 00:52:09;;;;;;;3.63;0.93;;;1.50;1.00;;;1.47;81.69;98019.53;4981180;28;129748;-73
2022/01/15 00:54:39;;;;;;;2.60;0.80;;;1.50;1.00;;;1.42;82.69;98041.00;4979979;28;130654;-73
2022/01/15 00:57:08;;;;;;;2.22;0.80;;;1.50;1.00;;;1.42;82.60;98027.63;4980162;28;125781;-73
2022/01/15 00:59:36;;;;;;;4.03;0.85;;;1.50;1.00;;;1.38;82.70;98038.06;4980216;28;125395;-73
2022/01/15 01:02:05;;;;;;;2.15;0.93;;;1.50;1.00;;;1.32;83.02;98044.56;4981331;28;130311;-73
2022/01/15 01:04:34;;;;;;;2.15;1.05;;;1.50;1.00;;;1.40;82.39;98027.91;4980256;28;130663;-73
2022/01/15 01:07:05;;;;;;;5.60;1.25;;;1.50;1.00;;;1.55;82.26;98042.16;4979996;28;125774;-74
2022/01/15 01:09:49;;;;;;;2.63;0.80;;;1.50;1.00;;;1.52;82.67;98051.53;4980470;28;125607;-73
2022/01/15 01:12:30;;;;;;;2.95;1.05;;;1.50;1.00;;;1.65;82.18;98052.69;4982643;28;129972;-74
2022/01/15 01:20:56;;;;;;;1.98;1.05;;;1.60;1.00;;;1.57;81.13;98051.50;4921455;28;126086;-73
2022/01/15 01:23:24;;;;;;;3.53;0.88;;;1.50;1.00;;;1.41;80.56;98053.53;4970490;28;130160;-73
2022/01/15 01:25:58;;;;;;;3.10;1.10;;;1.60;1.00;;;1.61;79.24;98055.16;4979425;28;130116;-73
2022/01/15 01:28:32;;;;;;;1.77;0.90;;;1.60;1.00;;;1.72;78.98;98023.72;4979451;28;125988;-73
2022/01/15 01:31:07;;;;;;;2.38;0.98;;;1.60;1.00;;;1.73;78.46;98064.63;4980637;28;126833;-73
2022/01/15 01:33:39;;;;;;;2.15;0.80;;;1.70;1.00;;;1.74;77.79;98067.03;4979838;28;130303;-74
2022/01/15 01:36:15;;;;;;;2.13;0.90;;;1.70;1.00;;;1.59;78.40;98059.19;4979496;28;130384;-73
2022/01/15 01:38:50;;;;;;;1.23;0.70;;;1.80;1.00;;;1.59;79.42;98040.47;4979343;28;125999;-73
2022/01/15 01:41:22;;;;;;;2.70;0.90;;;1.70;1.00;;;1.60;80.00;98050.09;4979568;28;126747;-73
2022/01/15 01:43:57;;;;;;;3.22;0.90;;;1.60;1.00;;;1.60;79.71;98056.25;4978970;28;129862;-73
2022/01/15 01:46:39;;;;;;;2.13;1.10;;;1.60;1.00;;;1.67;79.25;98049.75;4979108;28;129662;-73
2022/01/15 01:49:15;;;;;;;1.45;0.80;;;1.60;1.00;;;1.88;78.73;98056.41;4979463;28;125998;-74
2022/01/15 01:51:45;;;;;;;2.00;0.90;;;1.60;1.00;;;1.81;79.31;98072.03;4981611;28;125612;-73
2022/01/15 01:54:17;;;;;;;1.52;0.90;;;1.60;1.00;;;1.75;80.67;98036.53;4982241;28;130757;-73
2022/01/15 01:56:47;;;;;;;1.90;0.90;;;1.60;1.00;;;1.68;80.74;98062.81;4979165;28;129815;-73
2022/01/15 01:59:17;;;;;;;2.13;0.90;;;1.60;1.00;;;1.82;80.75;98062.13;4979339;28;125775;-73
2022/01/15 02:01:46;;;;;;;1.45;0.90;;;1.50;1.00;;;1.90;80.30;98069.50;4979563;28;125333;-73
2022/01/15 02:04:16;;;;;;;3.45;0.88;;;1.60;1.00;;;1.87;79.54;98076.22;4981231;28;130053;-73
2022/01/15 02:06:45;;;;;;;4.25;1.00;;;1.60;1.00;;;1.78;80.50;98057.34;4978994;28;131083;-73
2022/01/15 02:09:13;;;;;;;3.45;0.90;;;1.60;1.00;;;1.72;81.26;98074.56;4978785;28;126347;-73
2022/01/15 02:11:43;;;;;;;3.17;1.20;;;1.60;1.00;;;1.83;81.67;98069.84;4979121;28;126639;-73
2022/01/15 02:14:26;;;;;;;1.23;0.80;;;1.60;1.00;;;1.83;81.28;98063.72;4980020;28;130438;-74
2022/01/15 02:16:55;;;;;;;4.22;1.27;;;1.60;1.00;;;1.85;80.94;98077.59;4982397;28;130315;-74
2022/01/15 02:19:31;;;;;;;2.67;1.08;;;1.60;1.00;;;1.91;80.75;98076.44;4982879;28;126671;-74
2022/01/15 02:24:46;;;;;;;1.85;0.85;;;1.70;1.00;;;1.64;80.13;98061.81;4983784;28;129940;-73
2022/01/15 02:27:15;;;;;;;2.08;1.00;;;1.70;1.00;;;1.74;81.49;98076.94;4984772;28;129292;-73
2022/01/15 02:29:43;;;;;;;2.95;0.77;;;1.60;1.00;;;2.05;81.40;98076.53;4984825;28;126176;-74
2022/01/15 02:32:11;;;;;;;4.45;0.98;;;1.60;1.50;;;1.93;82.04;98075.06;4983328;28;125063;-74
2022/01/15 02:34:42;;;;;;;3.33;0.90;;;1.60;2.20;;;1.75;82.33;98052.56;4982925;28;129988;-73
2022/01/15 02:37:10;;;;;;;1.92;0.98;;;1.60;2.50;;;1.79;81.76;98079.53;4981443;28;130428;-72
2022/01/15 02:39:39;;;;;;;2.42;0.70;;;1.60;1.00;;;1.91;80.58;98071.09;4984885;28;125907;-72
2022/01/15 02:42:09;;;;;;;2.22;0.80;;;1.60;1.00;;;1.99;79.66;98089.16;4982284;28;125746;-72
2022/01/15 02:44:38;;;;;;;3.00;1.10;;;1.70;1.00;;;2.02;79.03;98103.84;4982953;28;129953;-73
2022/01/15 02:50:00;;;;;;;1.65;0.93;;;1.70;1.00;;;1.93;80.01;98084.97;4969099;28;125961;-72
2022/01/15 02:52:29;;;;;;;3.08;1.10;;;1.70;1.00;;;2.00;79.44;98082.72;4982677;28;125641;-73
2022/01/15 02:54:57;;;;;;;3.60;1.00;;;1.70;1.00;;;2.13;79.39;98089.22;4980816;28;130180;-73
2022/01/15 02:57:26;;;;;;;2.83;0.85;;;1.70;1.00;;;2.06;79.96;98094.19;4981872;28;130034;-72
2022/01/15 02:59:55;;;;;;;3.10;0.90;;;1.70;1.00;;;2.13;80.95;98095.38;4981528;28;126253;-74
2022/01/15 03:02:23;;;;;;;4.15;1.00;;;1.70;2.10;;;1.96;84.22;98071.00;4984494;28;126789;-72
2022/01/15 03:04:52;;;;;;;1.73;0.90;;;1.60;3.50;;;1.94;83.53;98090.03;4983957;28;129482;-73
2022/01/15 03:07:22;;;;;;;1.77;0.90;;;1.60;3.90;;;1.76;83.72;98070.22;4981072;28;130234;-73
2022/01/15 03:09:50;;;;;;;4.30;1.10;;;1.60;2.70;;;1.80;82.61;98089.94;4983090;28;125587;-72
2022/01/15 03:12:19;;;;;;;5.20;1.30;;;1.60;1.30;;;1.77;83.01;98071.78;4982066;28;126099;-73
2022/01/15 03:14:49;;;;;;;4.50;1.00;;;1.70;2.00;;;1.86;82.26;98079.19;4982104;28;129895;-73
2022/01/15 03:17:17;;;;;;;2.05;0.82;;;1.60;1.50;;;1.92;81.12;98091.41;4982140;28;130363;-73
2022/01/15 03:19:46;;;;;;;3.78;0.80;;;1.70;1.00;;;1.96;80.48;98079.03;4982664;28;125696;-72
2022/01/15 03:22:15;;;;;;;4.22;1.10;;;1.70;1.00;;;2.05;79.79;98096.03;4982329;28;125341;-72
2022/01/15 03:24:45;;;;;;;1.77;1.05;;;1.80;1.00;;;2.05;79.15;98101.38;4982145;28;130013;-72
2022/01/15 03:27:14;;;;;;;3.28;1.00;;;1.80;1.00;;;2.14;79.00;98090.84;4983939;28;129691;-72
2022/01/15 03:29:43;;;;;;;5.88;1.10;;;1.80;1.00;;;2.04;78.37;98104.34;4984414;28;125830;-72
2022/01/15 03:32:12;;;;;;;3.78;1.02;;;1.80;1.00;;;2.10;79.46;98069.22;4984948;28;125698;-73
2022/01/15 03:34:41;;;;;;;3.08;1.02;;;1.80;1.00;;;1.98;79.31;98098.28;4981834;28;130023;-73
2022/01/15 03:37:11;;;;;;;2.70;1.00;;;1.80;1.00;;;1.99;78.24;98099.88;4981393;28;129832;-73
2022/01/15 03:39:40;;;;;;;4.72;1.08;;;1.80;1.00;;;2.15;77.66;98093.22;4981702;28;126064;-74
2022/01/15 03:42:11;;;;;;;1.20;0.80;;;1.70;1.00;;;2.14;76.01;98099.66;4981959;28;126164;-73
2022/01/15 03:44:42;;;;;;;4.63;1.23;;;1.80;1.00;;;2.29;75.09;98103.19;4981494;28;130481;-74
2022/01/15 03:47:12;;;;;;;3.50;1.00;;;1.90;1.00;;;2.37;74.73;98099.88;4981340;28;130131;-74
2022/01/15 03:49:43;;;;;;;1.60;0.90;;;1.90;1.00;;;2.27;75.66;98110.72;4981385;28;126301;-74
2022/01/15 03:52:12;;;;;;;1.88;0.88;;;1.90;1.00;;;1.99;77.95;98097.19;4983995;28;126176;-73
2022/01/15 03:54:41;;;;;;;4.05;1.25;;;1.90;1.00;;;1.97;78.91;98112.75;4981339;28;129847;-74
2022/01/15 03:57:11;;;;;;;3.72;1.20;;;1.80;1.00;;;2.01;78.83;98097.72;4981313;28;130772;-74
2022/01/15 03:59:40;;;;;;;5.63;1.38;;;1.80;1.00;;;2.18;78.02;98101.75;4981283;28;127112;-74
2022/01/15 04:02:09;;;;;;;3.63;1.02;;;1.70;1.00;;;2.15;77.83;98087.88;4981242;28;126122;-74
2022/01/15 04:04:38;;;;;;;2.17;0.90;;;1.80;1.00;;;2.14;77.58;98094.28;4965178;28;128847;-74
2022/01/15 04:07:07;;;;;;;4.18;1.02;;;1.80;1.00;;;2.13;78.05;98106.06;4981241;28;130335;-75
2022/01/15 04:09:37;;;;;;;2.00;1.10;;;1.80;1.00;;;1.76;82.15;98139.78;4966591;28;124661;-74
2022/01/15 04:12:06;;;;;;;6.35;1.30;;;1.60;2.50;;;1.62;85.59;98117.47;4981123;28;125918;-74
2022/01/15 04:14:36;;;;;;;3.53;1.00;;;1.40;9.30;;;1.60;87.27;98114.28;4980766;28;129857;-74
2022/01/15 04:17:06;;;;;;;4.47;1.38;;;1.40;15.10;;;1.64;87.86;98104.63;4980980;28;130025;-74
2022/01/15 04:19:36;;;;;;;7.13;1.10;;;1.30;18.40;;;1.35;87.01;98118.84;4979758;28;126191;-73
2022/01/15 04:22:04;;;;;;;8.20;1.75;;;1.40;10.80;;;1.36;85.97;98125.78;4980970;28;125910;-74
2022/01/15 04:24:33;;;;;;;1.10;0.80;;;1.40;6.00;;;1.46;85.67;98098.13;4981655;28;129863;-74
2022/01/15 04:27:01;;;;;;;1.77;0.80;;;1.50;5.10;;;1.66;84.81;98123.84;4982196;28;130494;-74
2022/01/15 04:29:33;;;;;;;4.75;1.10;;;1.50;5.70;;;1.67;85.17;98120.09;4981167;28;126207;-74
2022/01/15 04:32:05;;;;;;;2.92;1.20;;;1.40;6.50;;;1.55;84.54;98123.16;4981488;28;125836;-74
2022/01/15 04:34:33;;;;;;;6.22;1.00;;;1.40;4.80;;;1.66;84.51;98121.16;4980643;28;130636;-73
2022/01/15 04:37:08;;;;;;;3.10;1.00;;;1.50;3.40;;;1.87;83.99;98128.94;4980643;28;130286;-73
2022/01/15 04:39:37;;;;;;;2.20;0.82;;;1.50;4.60;;;1.89;83.47;98119.53;4980642;28;126322;-74
2022/01/15 04:42:06;;;;;;;8.32;1.88;;;1.50;4.80;;;2.01;82.18;98127.16;4980673;28;126100;-74
2022/01/15 04:44:34;;;;;;;3.45;1.20;;;1.50;1.50;;;1.95;80.80;98121.06;4980742;28;129776;-73
2022/01/15 04:47:06;;;;;;;3.60;0.90;;;1.50;1.00;;;2.06;78.84;98137.00;4980518;28;129934;-73
2022/01/15 04:49:35;;;;;;;2.60;0.95;;;1.50;1.00;;;2.10;78.45;98132.63;4980348;28;126450;-74
2022/01/15 04:52:04;;;;;;;3.80;0.90;;;1.50;1.00;;;2.13;78.21;98116.78;4983388;28;125355;-74
2022/01/15 04:54:35;;;;;;;4.47;1.25;;;1.50;1.00;;;1.85;78.72;98126.53;4981792;28;129732;-72
2022/01/15 04:57:03;;;;;;;3.72;0.85;;;1.60;1.00;;;1.84;79.99;98134.84;4982440;28;129638;-74
2022/01/15 04:59:32;;;;;;;3.60;1.05;;;1.60;1.00;;;1.88;79.68;98131.31;4982987;28;125691;-74
2022/01/15 05:02:01;;;;;;;3.28;1.08;;;1.60;1.00;;;2.04;79.68;98148.00;4980820;28;125589;-74
2022/01/15 05:04:31;;;;;;;1.92;1.00;;;1.60;1.00;;;1.96;80.25;98143.25;4979373;28;129914;-74
2022/01/15 05:06:59;;;;;;;2.33;0.95;;;1.60;1.00;;;1.75;82.76;98159.56;4981863;28;129624;-74
2022/01/15 05:09:28;;;;;;;2.53;1.08;;;1.60;1.50;;;1.59;85.99;98156.28;4982455;28;125688;-73
2022/01/15 05:12:01;;;;;;;4.85;1.20;;;1.50;15.70;;;1.68;87.68;98185.84;4980279;28;125704;-74
2022/01/15 05:14:30;;;;;;;4.63;1.20;;;1.30;17.30;;;1.79;88.76;98159.78;4980359;28;129649;-74
2022/01/15 05:16:59;;;;;;;3.63;1.63;;;1.20;23.30;;;1.63;88.76;98167.19;4980345;28;129915;-74
2022/01/15 05:19:27;;;;;;;4.95;1.60;;;1.10;22.10;;;1.72;89.89;98159.34;4980418;28;125814;-74
2022/01/15 05:21:58;;;;;;;2.70;1.05;;;1.10;29.50;;;1.84;90.74;98172.31;4979263;28;125501;-74
2022/01/15 05:24:29;;;;;;;4.22;1.30;;;1.10;36.90;;;1.76;91.31;98171.06;4980242;28;129844;-74
2022/01/15 05:26:57;;;;;;;2.42;1.30;;;1.00;41.20;;;1.80;90.86;98183.56;4980301;28;129770;-75
2022/01/15 05:29:26;;;;;;;2.53;1.02;;;1.00;42.50;;;1.60;90.71;98183.81;4980065;28;126385;-74
2022/01/15 05:31:54;;;;;;;6.10;1.48;;;0.90;42.20;;;1.60;92.70;98195.28;4982435;28;127464;-75
2022/01/15 05:34:23;;;;;;;2.20;1.08;;;0.90;57.80;;;1.68;92.63;98179.72;4979934;28;130460;-75
2022/01/15 05:36:51;;;;;;;3.85;1.20;;;0.90;55.00;;;1.59;92.62;98204.41;4980098;28;129449;-74
2022/01/15 05:39:21;;;;;;;4.22;1.15;;;0.90;47.50;;;1.62;92.63;98219.09;4980092;28;126019;-73
2022/01/15 05:41:50;;;;;;;3.35;1.30;;;0.90;47.00;;;1.57;92.57;98216.47;4979529;28;125636;-74
2022/01/15 05:44:18;;;;;;;3.90;0.90;;;0.90;49.60;;;1.49;93.95;98222.44;4979901;28;130584;-74
2022/01/15 05:46:47;;;;;;;3.83;1.48;;;0.90;56.80;;;1.49;94.04;98230.47;4980034;28;129888;-73
2022/01/15 05:49:15;;;;;;;2.88;1.17;;;0.90;60.70;;;1.53;93.32;98236.84;4982133;28;125768;-73
2022/01/15 05:51:43;;;;;;;4.47;1.30;;;0.90;58.70;;;1.56;93.16;98225.59;4984292;28;126147;-73
2022/01/15 05:54:13;;;;;;;3.30;1.30;;;0.90;58.40;;;1.79;92.68;98230.16;4981541;28;129992;-72
2022/01/15 05:56:43;;;;;;;5.03;1.48;;;0.90;67.20;;;1.68;91.59;98250.03;4981964;28;130592;-72
2022/01/15 05:59:11;;;;;;;6.07;1.48;;;0.90;50.10;;;1.59;91.05;98239.19;4985314;28;125554;-72
2022/01/15 06:01:40;;;;;;;3.17;1.50;;;1.10;33.50;;;1.66;90.36;98252.22;4981813;28;125834;-73
2022/01/15 06:04:09;;;;;;;2.92;1.00;;;1.10;30.80;;;1.54;90.60;98246.44;4981965;28;129901;-72
2022/01/15 06:06:38;;;;;;;6.22;1.13;;;1.10;30.80;;;1.85;90.82;98251.50;4983744;28;128765;-72
2022/01/15 06:09:07;;;;;;;2.67;1.30;;;1.10;33.70;;;1.94;90.37;98253.25;4983163;28;126482;-73
2022/01/15 06:11:37;;;;;;;3.50;1.20;;;1.00;32.90;;;1.86;89.17;98242.41;4982297;28;125385;-72
2022/01/15 06:14:07;;;;;;;3.58;1.00;;;1.10;28.10;;;1.70;87.60;98253.25;4981743;28;130189;-72
2022/01/15 06:16:37;;;;;;;3.15;1.15;;;1.10;17.80;;;1.92;87.14;98249.28;4983202;28;130867;-73
2022/01/15 06:19:08;;;;;;;3.58;1.15;;;1.10;15.60;;;1.78;85.45;98263.31;4981925;28;126360;-72
2022/01/15 06:21:37;;;;;;;3.92;1.10;;;1.30;9.70;;;1.86;85.92;98245.06;4982724;28;126852;-72
2022/01/15 06:24:07;;;;;;;3.13;1.23;;;1.30;9.00;;;2.09;85.02;98260.31;4981589;28;130275;-72
2022/01/15 06:26:35;;;;;;;3.67;1.20;;;1.30;8.00;;;2.04;83.64;98271.09;4981241;28;129934;-73
2022/01/15 06:29:06;;;;;;;4.88;1.92;;;1.40;6.60;;;2.05;85.62;98256.59;4982589;28;126056;-73
2022/01/15 06:31:34;;;;;;;3.60;1.20;;;1.40;13.60;;;1.89;87.39;98292.66;4981194;28;126559;-73
2022/01/15 06:34:03;;;;;;;6.20;1.85;;;1.20;21.40;;;1.62;91.89;98280.59;4982594;28;128764;-73
2022/01/15 06:36:32;;;;;;;5.28;1.95;;;1.00;49.10;;;1.44;92.09;98296.28;4981262;28;129893;-73
2022/01/15 06:39:01;;;;;;;6.45;2.38;;;0.90;42.50;;;1.47;92.55;98294.13;4980398;28;126211;-74
2022/01/15 06:41:29;;;;;;;5.32;1.70;;;0.90;54.00;;;1.67;92.04;98318.00;4983769;28;126859;-73
2022/01/15 06:43:58;;;;;;;6.75;1.77;;;0.90;53.70;;;1.56;92.92;98321.88;4981487;28;129752;-73
2022/01/15 06:46:28;;;;;;;5.35;1.70;;;0.80;62.70;;;1.55;92.97;98310.34;4981471;28;129477;-73
2022/01/15 06:48:57;;;;;;;7.10;2.53;;;0.80;67.10;;;1.67;92.27;98318.00;4982791;28;125543;-74
2022/01/15 06:51:25;;;;;;;7.28;1.95;;;0.80;62.40;;;1.69;92.45;98321.19;4983175;28;125535;-74
2022/01/15 06:53:54;;;;;;;7.93;2.47;;;0.90;58.70;;;1.73;93.14;98314.22;4981272;28;129827;-73
2022/01/15 06:56:22;;;;;;;8.38;3.80;;;0.80;64.20;;;1.83;93.44;98325.91;4981347;28;129681;-73
2022/01/15 06:58:51;;;;;;;5.15;1.90;;;0.80;71.60;;;1.85;93.97;98323.72;4981482;28;126228;-74
2022/01/15 07:01:20;;;;;;;5.10;1.75;;;0.80;78.60;;;1.65;94.13;98344.22;4978594;28;125901;-73
2022/01/15 07:03:50;;;;;;;6.63;1.77;;;0.80;72.50;;;1.50;95.63;98349.72;4982542;28;129927;-73
2022/01/15 07:06:18;;;;;;;8.00;1.90;;;0.70;99.90;;;1.27;95.27;98346.66;4983706;28;129976;-73
2022/01/15 07:08:47;;;;;;;3.40;1.48;;;0.70;79.00;;;1.20;95.52;98324.78;4980915;28;127296;-75
2022/01/15 07:11:16;;;;;;;7.05;1.90;;;0.70;77.00;;;1.39;95.67;98339.09;4979708;28;126775;-74
2022/01/15 07:13:45;;;;;;;5.97;1.98;;;0.70;77.60;;;1.44;93.10;98352.41;4982396;28;130866;-74
2022/01/15 07:16:13;;;;;;;4.35;1.92;;;0.80;57.80;;;1.64;92.56;98358.69;4982839;28;129782;-73
2022/01/15 07:18:43;;;;;;;7.10;2.20;;;0.90;55.00;;;2.00;92.37;98369.06;4966461;28;125180;-74
2022/01/15 07:21:13;;;;;;;4.70;1.63;;;1.00;63.30;;;1.88;91.62;98382.03;4983890;28;125623;-74
2022/01/15 07:23:42;;;;;;;3.15;1.30;;;1.00;67.60;;;1.75;93.69;98384.28;4981607;28;130034;-74
2022/01/15 07:26:12;;;;;;;4.47;1.77;;;0.90;86.40;;;1.66;93.98;98375.25;4981689;28;129673;-75
2022/01/15 07:28:40;;;;;;;5.88;2.72;;;0.80;91.50;;;1.96;94.25;98378.72;4982690;28;126229;-73
2022/01/15 07:31:09;;;;;;;8.05;3.10;;;0.90;96.40;;;2.15;92.77;98371.59;4981047;28;125965;-74
2022/01/15 07:33:38;;;;;;;8.55;3.92;;;1.00;93.60;;;2.14;91.21;98386.06;4980392;28;129981;-73
2022/01/15 07:36:07;;;;;;;6.57;3.20;;;1.00;71.20;;;2.20;90.23;98365.41;4980255;28;129950;-73
2022/01/15 07:38:38;;;;;;;4.43;1.80;;;1.10;66.00;;;2.32;89.93;98379.19;4999542;28;124922;-74
2022/01/15 07:41:11;;;;;;;9.10;1.83;;;1.20;60.20;;;2.08;88.17;98384.50;4981158;28;125159;-72
2022/01/15 07:43:40;;;;;;;3.22;1.20;;;1.20;36.60;;;2.44;86.93;98384.13;4966400;28;129433;-75
2022/01/15 07:46:08;;;;;;;5.82;1.40;;;1.40;35.00;;;2.79;85.23;98392.84;4980790;28;129610;-74
2022/01/15 07:48:37;;;;;;;8.23;2.80;;;1.40;32.50;;;3.27;84.45;98401.88;4981509;28;126097;-75
2022/01/15 07:51:05;;;;;;;5.55;2.28;;;1.60;35.10;;;3.19;83.08;98403.31;4982490;28;125667;-74
2022/01/15 07:53:36;;;;;;;8.00;3.20;;;1.60;27.50;;;3.01;82.43;98412.94;4982882;28;130550;-75
2022/01/15 07:56:08;;;;;;;4.30;2.20;;;1.50;22.70;;;2.98;82.13;98413.53;4966387;28;130217;-74
2022/01/15 07:58:37;;;;;;;5.35;1.83;;;1.50;19.90;;;2.77;82.53;98402.25;4983040;28;126822;-72
2022/01/15 08:01:05;;;;;;;6.22;2.60;;;1.60;16.10;;;3.08;83.23;98429.47;4981472;28;125887;-74
2022/01/15 08:03:35;;;;;;;10.35;4.53;;;1.60;17.90;;;2.20;85.63;98421.63;4980986;28;130379;-74
2022/01/15 08:06:06;;;;;;;6.03;1.60;;;1.60;16.60;;;2.30;86.95;98428.72;4983022;28;128802;-75
2022/01/15 08:08:35;;;;;;;4.32;1.83;;;1.70;21.30;;;1.96;87.58;98443.78;4983159;28;125751;-74
2022/01/15 08:11:06;;;;;;;6.03;1.58;;;1.60;22.00;;;1.60;90.19;98430.66;4980390;28;125456;-74
2022/01/15 08:13:35;;;;;;;7.25;3.00;;;1.40;28.20;;;1.68;91.73;98445.31;4982580;28;129260;-74
2022/01/15 08:16:04;;;;;;;7.78;3.95;;;1.40;37.80;;;1.91;92.13;98443.00;4981021;28;130074;-75
2022/01/15 08:18:34;;;;;;;8.85;3.97;;;1.50;34.50;;;1.97;90.92;98461.41;4980934;28;125617;-74
2022/01/15 08:21:05;;;;;;;5.47;3.03;;;1.40;35.50;;;2.02;90.39;98457.09;4982730;28;125771;-73
2022/01/15 08:23:35;;;;;;;5.97;2.22;;;1.40;36.60;;;1.84;90.63;98461.25;4983520;28;129789;-74
2022/01/15 08:26:05;;;;;;;8.40;2.03;;;1.40;33.50;;;2.02;89.58;98465.13;4980811;28;129760;-74
2022/01/15 08:28:34;;;;;;;5.53;2.45;;;1.50;30.10;;;2.16;88.32;98468.75;4982442;28;124896;-75
2022/01/15 08:31:03;;;;;;;4.70;1.80;;;1.50;28.20;;;2.22;86.73;98472.97;4982414;28;125409;-74
2022/01/15 08:33:31;;;;;;;5.35;2.30;;;1.60;22.20;;;2.45;86.39;98490.19;4980515;28;129876;-74
2022/01/15 08:36:00;;;;;;;3.38;1.60;;;1.70;21.10;;;2.31;84.90;98491.94;4982883;28;131076;-74
2022/01/15 08:38:28;;;;;;;7.50;2.78;;;1.70;14.10;;;2.53;84.48;98482.63;4981802;28;125353;-76
2022/01/15 08:40:57;;;;;;;5.53;1.92;;;1.80;15.00;;;2.36;82.63;98483.84;4981446;28;125185;-74
2022/01/15 08:43:27;;;;;;;4.80;2.15;;;1.80;7.50;;;2.19;81.29;98502.19;4980505;28;130531;-75
2022/01/15 08:45:56;;;;;;;3.35;1.52;;;1.80;3.10;;;2.16;81.17;98503.56;4980549;28;130211;-76
2022/01/15 08:48:24;;;;;;;5.38;2.38;;;1.80;1.70;;;2.30;79.52;98503.69;4978919;28;126563;-75
2022/01/15 08:50:53;;;;;;;3.95;1.95;;;1.80;1.00;;;2.25;78.19;98509.13;4981232;28;126086;-75
2022/01/15 08:53:22;;;;;;;4.78;1.50;;;1.80;1.00;;;2.08;76.58;98510.31;4982425;28;129138;-75
2022/01/15 08:55:52;;;;;;;5.22;1.40;;;1.90;1.00;;;2.40;76.34;98526.91;4982318;28;129721;-77
2022/01/15 08:58:20;;;;;;;3.47;1.73;;;2.00;1.00;;;2.53;75.89;98539.66;4982480;28;125649;-76
2022/01/15 09:00:54;;;;;;;6.75;2.25;;;2.10;1.00;;;2.55;75.83;98531.34;4982301;28;124948;-77
2022/01/15 09:03:23;;;;;;;7.05;2.38;;;2.10;1.00;;;2.63;75.26;98526.19;4983215;28;129814;-77
2022/01/15 09:05:54;;;;;;;4.90;1.58;;;2.10;1.00;;;2.40;76.22;98522.38;4981167;28;129838;-78
2022/01/15 09:08:24;;;;;;;2.97;1.42;;;2.00;1.00;;;2.70;75.60;98515.13;4980184;28;126193;-76
2022/01/15 09:10:53;;;;;;;3.10;1.30;;;2.10;1.00;;;2.60;74.25;98531.28;4982121;28;125823;-77
2022/01/15 09:13:22;;;;;;;5.13;2.10;;;2.10;1.00;;;2.48;74.56;98532.47;4981922;28;129826;-76
2022/01/15 09:15:52;;;;;;;3.53;1.40;;;2.00;1.00;;;2.39;75.52;98536.84;4983001;28;130316;-77
2022/01/15 09:18:21;;;;;;;3.67;1.80;;;2.00;1.00;;;2.66;75.85;98532.84;4980525;28;125445;-76
2022/01/15 09:20:53;;;;;;;6.90;2.75;;;2.00;1.00;;;2.66;76.55;98538.19;4981659;28;125505;-76
2022/01/15 09:23:22;;;;;;;3.63;1.95;;;2.00;1.00;;;2.62;76.81;98566.66;4980802;28;129794;-75
2022/01/15 09:25:52;;;;;;;5.95;2.42;;;2.00;1.00;;;2.96;77.22;98549.69;4964729;28;128795;-76
2022/01/15 09:31:09;;;;;;;5.50;2.73;;;1.90;1.00;;;2.58;78.31;98549.53;4978883;28;125535;-75
2022/01/15 09:33:38;;;;;;;11.68;4.65;;;1.90;1.00;;;2.87;76.72;98563.72;4979818;28;130267;-75
2022/01/15 09:36:07;;;;;;;12.05;4.85;;;2.00;1.00;;;2.91;76.98;98555.91;4979208;28;129951;-74
2022/01/15 09:38:35;;;;;;;10.45;5.22;;;2.00;1.00;;;3.12;75.66;98559.19;4979089;28;126897;-74
2022/01/15 09:41:04;;;;;;;8.27;3.40;;;2.10;1.00;;;3.06;74.81;98571.03;4979132;28;126487;-74
2022/01/15 09:43:34;;;;;;;10.27;3.60;;;2.00;1.00;;;3.31;75.08;98561.91;4980176;28;129890;-74
2022/01/15 09:46:04;;;;;;;8.65;2.15;;;2.10;1.00;;;2.86;74.22;98572.81;4979904;28;130192;-73
2022/01/15 09:48:37;;;;;;;8.10;3.70;;;2.00;1.00;;;3.27;73.71;98568.13;4980744;28;126154;-73
2022/01/15 09:51:06;;;;;;;5.88;2.40;;;2.20;1.00;;;3.23;73.23;98570.59;4980973;28;125439;-73
2022/01/15 09:53:36;;;;;;;7.15;2.38;;;2.20;1.00;;;2.93;73.26;98566.34;4978245;28;130197;-73
2022/01/15 09:56:07;;;;;;;10.25;4.72;;;2.10;1.00;;;3.26;73.26;98564.66;4978469;28;130487;-73
2022/01/15 09:58:37;;;;;;;6.68;3.13;;;2.20;1.00;;;3.01;72.57;98571.09;4982050;28;102651;-74
2022/01/15 10:01:06;;;;;;;7.05;2.55;;;2.10;1.00;;;2.96;73.07;98584.53;4978584;28;125666;-74
2022/01/15 10:03:37;;;;;;;8.40;2.65;;;2.10;1.00;;;3.13;72.28;98592.13;4977677;28;129802;-74
2022/01/15 10:06:07;;;;;;;10.18;2.60;;;2.10;1.00;;;3.02;73.22;98597.63;4957342;28;129542;-74
2022/01/15 10:08:37;;;;;;;7.30;3.08;;;2.10;1.00;;;2.74;72.66;98607.22;4977291;28;125768;-73
2022/01/15 10:11:11;;;;;;;6.03;2.45;;;2.00;1.00;;;2.93;73.68;98617.25;4979833;28;125459;-74
2022/01/15 10:13:46;;;;;;;5.45;2.42;;;2.00;1.00;;;2.61;73.30;98614.03;4978859;28;130145;-75
2022/01/15 10:16:18;;;;;;;4.22;1.73;;;2.00;1.00;;;2.57;72.37;98622.94;4981371;28;130724;-74
2022/01/15 10:18:49;;;;;;;2.35;1.38;;;2.00;1.00;;;2.51;72.34;98614.94;4980637;28;125233;-73
2022/01/15 10:21:22;;;;;;;4.38;2.13;;;2.00;1.00;;;2.88;72.75;98610.88;4980381;28;125194;-76
2022/01/15 10:23:55;;;;;;;4.65;1.80;;;2.10;1.00;;;2.69;72.42;98650.94;4981262;28;129949;-74
2022/01/15 10:26:26;;;;;;;11.00;4.82;;;2.00;1.00;;;2.73;72.63;98619.06;4977994;28;129619;-75
2022/01/15 10:28:58;;;;;;;6.53;1.88;;;2.00;1.00;;;2.69;72.60;98605.41;4978101;28;126744;-73
2022/01/15 10:31:30;;;;;;;4.50;1.98;;;2.00;1.00;;;2.79;72.94;98625.16;4980637;28;126628;-74
2022/01/15 10:34:21;;;;;;;4.10;1.60;;;2.10;1.00;;;2.99;71.63;98616.94;4978524;28;131267;-73
2022/01/15 10:36:50;;;;;;;7.57;2.47;;;2.10;1.00;;;3.09;71.44;98632.13;4982945;28;129858;-73
2022/01/15 10:39:22;;;;;;;5.00;1.98;;;2.20;1.00;;;2.99;70.95;98632.22;4982768;28;125961;-74
2022/01/15 10:41:50;;;;;;;7.35;2.08;;;2.10;1.00;;;2.69;72.04;98631.41;5000488;28;124841;-74
2022/01/15 10:44:34;;;;;;;5.68;2.17;;;2.00;1.00;;;2.63;72.84;98640.56;4984739;28;130173;-74
2022/01/15 10:47:09;;;;;;;5.78;1.95;;;2.00;1.00;;;2.62;73.63;98653.16;4983821;28;129071;-74
2022/01/15 10:49:41;;;;;;;10.05;2.78;;;2.00;1.00;;;2.76;73.96;98650.66;4983815;28;125538;-76
2022/01/15 10:52:14;;;;;;;8.38;2.53;;;2.00;1.00;;;2.69;74.87;98650.16;4984269;28;127161;-74
2022/01/15 10:55:00;;;;;;;5.38;2.00;;;2.00;1.00;;;2.62;75.26;98657.72;4980957;28;129859;-75
2022/01/15 10:57:32;;;;;;;3.80;1.70;;;1.90;1.00;;;2.39;76.62;98665.38;4980413;28;129814;-73